createdAt,value
2019-05-15T00:01:44.841Z,5.33
2019-05-15T00:04:15.087Z,3.97
2019-05-15T00:06:45.382Z,4.53
2019-05-15T00:09:15.876Z,4.53
2019-05-15T00:11:48.173Z,5.17
2019-05-15T00:14:18.539Z,4.40
2019-05-15T00:16:50.353Z,3.77
2019-05-15T00:19:20.814Z,4.77
2019-05-15T00:21:51.136Z,3.97
2019-05-15T00:24:21.881Z,4.83
2019-05-15T00:26:52.197Z,6.53
2019-05-15T00:29:22.959Z,6.50
2019-05-15T00:31:53.768Z,8.03
2019-05-15T00:34:24.122Z,4.37
2019-05-15T00:36:54.763Z,5.53
2019-05-15T00:39:25.362Z,4.40
2019-05-15T00:41:55.509Z,5.93
2019-05-15T00:44:27.900Z,4.13
2019-05-15T00:46:58.254Z,4.53
2019-05-15T00:49:28.983Z,6.43
2019-05-15T00:52:01.260Z,4.70
2019-05-15T00:54:31.878Z,4.33
2019-05-15T00:57:02.169Z,4.10
2019-05-15T00:59:32.618Z,4.97
2019-05-15T01:02:02.663Z,5.20
2019-05-15T01:04:32.936Z,4.13
2019-05-15T01:07:03.141Z,5.00
2019-05-15T01:09:33.461Z,6.93
2019-05-15T01:12:03.807Z,7.80
2019-05-15T01:14:34.213Z,5.43
2019-05-15T01:17:04.542Z,6.97
2019-05-15T01:19:35.075Z,10.13
2019-05-15T01:22:05.550Z,10.60
2019-05-15T01:24:35.961Z,11.17
2019-05-15T01:27:06.136Z,12.27
2019-05-15T01:29:41.916Z,10.90
2019-05-15T01:32:08.563Z,11.43
2019-05-15T01:34:38.767Z,11.13
2019-05-15T01:37:10.655Z,10.07
2019-05-15T01:39:40.843Z,9.23
2019-05-15T01:42:10.973Z,9.60
2019-05-15T01:44:41.273Z,12.93
2019-05-15T01:47:11.719Z,11.03
2019-05-15T01:49:41.902Z,10.57
2019-05-15T01:52:12.165Z,10.03
2019-05-15T01:54:43.159Z,9.83
2019-05-15T01:57:13.660Z,11.30
2019-05-15T01:59:56.463Z,10.80
2019-05-15T02:02:18.705Z,9.47
2019-05-15T02:04:49.024Z,9.27
2019-05-15T02:07:19.676Z,9.50
2019-05-15T02:09:49.759Z,10.87
2019-05-15T02:12:20.112Z,9.30
2019-05-15T02:14:50.614Z,10.77
2019-05-15T02:17:21.041Z,10.77
2019-05-15T02:19:51.289Z,7.93
2019-05-15T02:22:21.600Z,11.03
2019-05-15T02:24:51.918Z,7.40
2019-05-15T02:27:22.344Z,9.73
2019-05-15T02:29:52.443Z,11.17
2019-05-15T02:32:22.706Z,8.10
2019-05-15T02:34:52.995Z,10.30
2019-05-15T02:37:23.476Z,10.40
2019-05-15T02:39:53.763Z,9.83
2019-05-15T02:42:24.297Z,7.63
2019-05-15T02:44:54.719Z,7.60
2019-05-15T02:47:25.111Z,11.63
2019-05-15T02:49:55.605Z,7.67
2019-05-15T02:52:29.277Z,8.03
2019-05-15T02:54:59.930Z,7.57
2019-05-15T02:57:30.570Z,8.90
2019-05-15T03:00:01.361Z,8.87
2019-05-15T03:02:31.516Z,7.60
2019-05-15T03:05:01.756Z,7.07
2019-05-15T03:07:32.292Z,8.13
2019-05-15T03:10:03.192Z,8.13
2019-05-15T03:12:33.413Z,11.93
2019-05-15T03:15:03.973Z,7.27
2019-05-15T03:17:34.846Z,7.97
2019-05-15T03:20:10.276Z,7.43
2019-05-15T03:22:40.322Z,7.70
2019-05-15T03:25:11.917Z,11.40
2019-05-15T03:27:42.345Z,9.57
2019-05-15T03:30:14.709Z,11.47
2019-05-15T03:32:53.965Z,7.73
2019-05-15T03:35:22.112Z,8.30
2019-05-15T03:37:49.256Z,7.00
2019-05-15T03:40:19.720Z,9.40
2019-05-15T03:42:50.166Z,9.33
2019-05-15T03:45:20.505Z,8.90
2019-05-15T03:47:50.565Z,6.93
2019-05-15T03:50:20.877Z,8.57
2019-05-15T03:52:51.113Z,8.63
2019-05-15T03:55:23.110Z,7.17
2019-05-15T03:57:53.092Z,11.13
2019-05-15T04:00:23.423Z,8.50
2019-05-15T04:02:53.684Z,9.80
2019-05-15T04:05:23.786Z,8.03
2019-05-15T04:07:54.050Z,8.20
2019-05-15T04:10:24.369Z,8.00
2019-05-15T04:12:55.361Z,8.10
2019-05-15T04:15:25.678Z,7.30
2019-05-15T04:17:55.998Z,10.03
2019-05-15T04:20:29.469Z,13.27
2019-05-15T04:23:00.416Z,9.53
2019-05-15T04:25:31.544Z,11.17
2019-05-15T04:28:01.906Z,8.00
2019-05-15T04:30:32.241Z,10.43
2019-05-15T04:33:02.743Z,8.43
2019-05-15T04:35:32.856Z,10.90
2019-05-15T04:38:03.241Z,9.33
2019-05-15T04:40:33.486Z,7.77
2019-05-15T04:43:04.619Z,10.73
2019-05-15T04:45:35.666Z,7.73
2019-05-15T04:48:09.519Z,10.03
2019-05-15T04:50:40.100Z,7.90
2019-05-15T04:53:11.035Z,8.87
2019-05-15T04:55:41.323Z,8.67
2019-05-15T04:58:11.745Z,6.33
2019-05-15T05:00:50.146Z,9.93
2019-05-15T05:03:21.011Z,6.93
2019-05-15T05:05:51.646Z,7.13
2019-05-15T05:08:21.900Z,6.53
2019-05-15T05:10:52.055Z,6.80
2019-05-15T05:13:22.208Z,7.33
2019-05-15T05:15:52.529Z,7.27
2019-05-15T05:18:22.832Z,8.77
2019-05-15T05:20:53.188Z,7.97
2019-05-15T05:23:23.397Z,6.73
2019-05-15T05:25:53.635Z,7.40
2019-05-15T05:28:23.966Z,8.40
2019-05-15T05:30:54.079Z,6.93
2019-05-15T05:33:24.379Z,10.23
2019-05-15T05:35:54.608Z,5.97
2019-05-15T05:38:25.151Z,6.27
2019-05-15T05:40:55.390Z,7.03
2019-05-15T05:43:25.656Z,11.47
2019-05-15T05:45:58.121Z,7.07
2019-05-15T05:48:29.261Z,7.50
2019-05-15T05:50:59.948Z,5.80
2019-05-15T05:53:30.407Z,8.43
2019-05-15T05:56:00.915Z,5.63
2019-05-15T05:58:31.455Z,9.70
2019-05-15T06:01:01.541Z,5.17
2019-05-15T06:03:31.749Z,9.00
2019-05-15T06:06:02.128Z,8.87
2019-05-15T06:08:32.724Z,9.30
2019-05-15T06:11:03.066Z,7.03
2019-05-15T06:13:33.481Z,6.63
2019-05-15T06:16:03.981Z,6.50
2019-05-15T06:18:34.241Z,6.70
2019-05-15T06:21:04.337Z,3.67
2019-05-15T06:23:36.136Z,5.87
2019-05-15T06:26:09.080Z,4.30
2019-05-15T06:28:39.663Z,6.60
2019-05-15T06:31:10.172Z,3.90
2019-05-15T06:33:40.642Z,4.80
2019-05-15T06:36:11.573Z,4.70
2019-05-15T06:38:42.177Z,3.10
2019-05-15T06:41:12.497Z,3.80
2019-05-15T06:43:42.604Z,2.97
2019-05-15T06:46:12.836Z,3.37
2019-05-15T06:48:43.123Z,3.23
2019-05-15T06:51:13.282Z,2.90
2019-05-15T06:53:43.897Z,2.07
2019-05-15T06:56:14.052Z,2.93
2019-05-15T06:58:44.344Z,5.03
2019-05-15T07:01:14.630Z,3.63
2019-05-15T07:03:44.864Z,2.73
2019-05-15T07:06:15.112Z,3.23
2019-05-15T07:08:49.580Z,4.40
2019-05-15T07:11:19.379Z,4.80
2019-05-15T07:13:49.576Z,3.50
2019-05-15T07:16:19.858Z,5.17
2019-05-15T07:18:50.003Z,3.27
2019-05-15T07:21:20.679Z,4.07
2019-05-15T07:23:51.341Z,4.07
2019-05-15T07:26:21.482Z,2.90
2019-05-15T07:28:51.599Z,4.07
2019-05-15T07:31:22.167Z,3.50
2019-05-15T07:33:52.337Z,5.73
2019-05-15T07:36:22.602Z,4.40
2019-05-15T07:38:52.867Z,3.37
2019-05-15T07:41:23.016Z,5.87
2019-05-15T07:43:53.274Z,2.53
2019-05-15T07:46:23.418Z,5.37
2019-05-15T07:48:53.778Z,3.83
2019-05-15T07:51:23.935Z,2.70
2019-05-15T07:53:58.149Z,2.73
2019-05-15T07:56:25.777Z,2.80
2019-05-15T07:58:55.931Z,2.83
2019-05-15T08:01:26.201Z,3.03
2019-05-15T08:04:09.260Z,5.20
2019-05-15T08:06:28.975Z,3.57
2019-05-15T08:08:59.458Z,2.73
2019-05-15T08:11:29.528Z,3.43
2019-05-15T08:13:59.487Z,2.70
2019-05-15T08:16:29.757Z,3.20
2019-05-15T08:18:59.730Z,3.07
2019-05-15T08:21:30.072Z,3.07
2019-05-15T08:24:01.401Z,2.33
2019-05-15T08:26:31.678Z,4.93
2019-05-15T08:29:01.601Z,3.20
2019-05-15T08:31:31.676Z,2.83
2019-05-15T08:34:12.563Z,4.33
2019-05-15T08:36:33.664Z,4.27
2019-05-15T08:39:05.588Z,3.37
2019-05-15T08:41:35.737Z,5.20
2019-05-15T08:44:05.870Z,3.43
2019-05-15T08:46:35.842Z,3.43
2019-05-15T08:49:06.023Z,4.47
2019-05-15T08:51:38.127Z,3.40
2019-05-15T08:54:08.661Z,3.63
2019-05-15T08:56:39.566Z,2.47
2019-05-15T08:59:09.715Z,3.37
2019-05-15T09:01:39.877Z,5.37
2019-05-15T09:04:09.954Z,6.23
2019-05-15T09:06:41.368Z,3.67
2019-05-15T09:09:12.127Z,2.53
2019-05-15T09:11:42.342Z,3.53
2019-05-15T09:14:12.639Z,5.67
2019-05-15T09:16:42.673Z,3.07
2019-05-15T09:19:12.763Z,2.23
2019-05-15T09:21:42.759Z,4.70
2019-05-15T09:24:13.037Z,4.50
2019-05-15T09:26:43.474Z,3.93
2019-05-15T09:29:13.783Z,3.83
2019-05-15T09:31:43.809Z,2.97
2019-05-15T09:34:13.914Z,2.93
2019-05-15T09:36:45.260Z,4.33
2019-05-15T09:39:18.075Z,4.20
2019-05-15T09:41:48.816Z,6.53
2019-05-15T09:44:21.498Z,3.37
2019-05-15T09:46:50.924Z,5.20
2019-05-15T09:49:21.302Z,5.50
2019-05-15T09:51:51.715Z,2.47
2019-05-15T09:54:25.398Z,2.43
2019-05-15T09:56:53.943Z,3.37
2019-05-15T09:59:24.326Z,3.97
2019-05-15T10:01:54.444Z,4.37
2019-05-15T10:04:24.783Z,4.10
2019-05-15T10:06:55.065Z,7.13
2019-05-15T10:09:25.543Z,3.10
2019-05-15T10:11:55.874Z,3.50
2019-05-15T10:14:26.610Z,3.07
2019-05-15T10:16:58.351Z,5.37
2019-05-15T10:19:29.111Z,3.50
2019-05-15T10:21:59.686Z,2.97
2019-05-15T10:24:30.059Z,5.13
2019-05-15T10:27:00.262Z,6.30
2019-05-15T10:29:30.400Z,4.43
2019-05-15T10:32:00.486Z,4.07
2019-05-15T10:34:30.743Z,3.23
2019-05-15T10:37:01.047Z,3.03
2019-05-15T10:39:31.268Z,3.07
2019-05-15T10:42:01.671Z,3.57
2019-05-15T10:44:31.726Z,2.63
2019-05-15T10:47:01.826Z,4.80
2019-05-15T10:49:31.853Z,4.70
2019-05-15T10:52:02.135Z,5.03
2019-05-15T10:54:32.297Z,4.07
2019-05-15T10:57:05.232Z,2.50
2019-05-15T10:59:35.840Z,2.37
2019-05-15T11:02:08.410Z,2.73
2019-05-15T11:04:39.226Z,3.23
2019-05-15T11:07:09.850Z,2.37
2019-05-15T11:09:40.659Z,3.43
2019-05-15T11:12:10.928Z,4.17
2019-05-15T11:14:41.234Z,4.47
2019-05-15T11:17:11.854Z,2.57
2019-05-15T11:19:42.030Z,2.47
2019-05-15T11:22:12.441Z,1.70
2019-05-15T11:24:42.675Z,4.37
2019-05-15T11:27:13.093Z,2.93
2019-05-15T11:29:43.475Z,3.07
2019-05-15T11:32:13.744Z,3.23
2019-05-15T11:34:44.207Z,3.00
2019-05-15T11:37:14.592Z,2.87
2019-05-15T11:39:47.357Z,3.63
2019-05-15T11:42:20.109Z,8.63
2019-05-15T11:44:53.172Z,1.73
2019-05-15T11:47:21.535Z,3.73
2019-05-15T11:49:51.654Z,1.97
2019-05-15T11:52:21.961Z,2.63
2019-05-15T11:54:52.208Z,2.77
2019-05-15T11:57:37.267Z,1.90
2019-05-15T11:59:55.590Z,2.23
2019-05-15T12:02:29.131Z,3.40
2019-05-15T12:04:58.376Z,4.30
2019-05-15T12:07:29.138Z,2.50
2019-05-15T12:09:59.476Z,2.27
2019-05-15T12:12:31.962Z,3.23
2019-05-15T12:15:01.952Z,2.73
2019-05-15T12:17:34.167Z,3.10
2019-05-15T12:20:06.720Z,2.00
2019-05-15T12:22:38.939Z,2.93
2019-05-15T12:25:09.955Z,2.10
2019-05-15T12:27:40.621Z,0.90
2019-05-15T12:30:12.100Z,2.77
2019-05-15T12:32:42.160Z,2.63
2019-05-15T12:35:12.552Z,1.63
2019-05-15T12:37:42.697Z,2.03
2019-05-15T13:00:29.892Z,3.70
2019-05-15T13:03:00.375Z,2.90
2019-05-15T13:05:32.492Z,3.93
2019-05-15T13:08:02.219Z,3.20
2019-05-15T13:10:32.288Z,4.67
2019-05-15T13:13:05.412Z,2.63
2019-05-15T13:15:34.140Z,4.33
2019-05-15T13:18:04.433Z,2.90
2019-05-15T13:20:34.900Z,6.33
2019-05-15T13:23:05.059Z,3.17
2019-05-15T13:25:35.310Z,4.97
2019-05-15T13:28:05.663Z,4.23
2019-05-15T13:30:40.338Z,29.10
2019-05-15T13:33:09.768Z,2.87
2019-05-15T13:35:39.802Z,3.07
2019-05-15T13:38:10.437Z,4.13
2019-05-15T13:40:42.500Z,9.13
2019-05-15T13:43:12.759Z,4.20
2019-05-15T13:45:44.221Z,4.07
2019-05-15T13:48:16.661Z,2.97
2019-05-15T13:50:48.153Z,4.97
2019-05-15T13:53:18.408Z,4.03
2019-05-15T13:55:48.783Z,4.17
2019-05-15T13:58:20.833Z,4.73
2019-05-15T14:00:51.164Z,4.40
2019-05-15T14:03:21.488Z,6.13
2019-05-15T14:05:51.609Z,7.20
2019-05-15T14:08:21.826Z,4.27
2019-05-15T14:10:52.048Z,8.27
2019-05-15T14:13:22.296Z,5.47
2019-05-15T14:15:52.828Z,3.60
2019-05-15T14:18:22.829Z,5.77
2019-05-15T14:20:52.827Z,6.70
2019-05-15T14:23:22.753Z,7.87
2019-05-15T14:25:53.084Z,3.23
2019-05-15T14:28:23.140Z,5.13
2019-05-15T14:30:53.238Z,16.43
2019-05-15T14:33:23.649Z,4.63
2019-05-15T14:35:53.862Z,3.20
2019-05-15T14:38:23.902Z,4.03
2019-05-15T14:40:54.213Z,6.37
2019-05-15T14:43:24.321Z,4.67
2019-05-15T14:45:54.636Z,12.30
2019-05-15T14:48:24.783Z,9.17
2019-05-15T14:50:54.879Z,10.93
2019-05-15T14:53:25.002Z,5.20
2019-05-15T14:55:54.999Z,7.33
2019-05-15T14:58:24.950Z,3.73
2019-05-15T15:00:55.376Z,5.27
2019-05-15T15:03:25.516Z,4.43
2019-05-15T15:05:58.113Z,5.33
2019-05-15T15:08:29.185Z,5.87
2019-05-15T15:10:59.855Z,9.03
2019-05-15T15:13:30.441Z,5.37
2019-05-15T15:16:00.500Z,6.10
2019-05-15T15:18:30.738Z,5.27
2019-05-15T15:21:01.084Z,4.23
2019-05-15T15:23:31.432Z,5.23
2019-05-15T15:26:02.146Z,5.97
2019-05-15T15:28:32.532Z,4.83
2019-05-15T15:31:02.558Z,4.47
2019-05-15T15:33:32.676Z,5.13
2019-05-15T15:36:02.792Z,7.23
2019-05-15T15:38:40.203Z,3.73
2019-05-15T15:41:04.929Z,6.80
2019-05-15T15:43:35.095Z,5.50
2019-05-15T15:46:05.318Z,3.70
2019-05-15T15:48:35.457Z,3.07
2019-05-15T15:51:05.781Z,5.53
2019-05-15T15:53:36.296Z,4.10
2019-05-15T15:56:10.515Z,5.07
2019-05-15T15:58:39.616Z,3.40
2019-05-15T16:01:09.735Z,2.53
2019-05-15T16:03:39.764Z,4.00
2019-05-15T16:06:09.869Z,5.53
2019-05-15T16:08:52.255Z,2.50
2019-05-15T16:11:12.673Z,3.43
2019-05-15T16:13:42.708Z,2.00
2019-05-15T16:16:12.825Z,2.87
2019-05-15T16:18:43.023Z,3.23
2019-05-15T16:21:13.220Z,4.40
2019-05-15T16:23:43.557Z,3.40
2019-05-15T16:26:13.805Z,2.50
2019-05-15T16:28:43.729Z,2.90
2019-05-15T16:31:13.740Z,2.33
2019-05-15T16:33:44.005Z,2.03
2019-05-15T16:36:14.213Z,3.40
2019-05-15T16:38:44.455Z,3.40
2019-05-15T16:41:14.643Z,5.57
2019-05-15T16:43:44.776Z,2.57
2019-05-15T16:46:14.960Z,2.77
2019-05-15T16:48:44.979Z,3.93
2019-05-15T16:51:14.971Z,3.87
2019-05-15T16:53:45.442Z,2.43
2019-05-15T16:56:15.680Z,3.17
2019-05-15T16:58:47.969Z,3.50
2019-05-15T17:01:18.650Z,3.73
2019-05-15T17:03:49.092Z,2.77
2019-05-15T17:06:19.741Z,3.07
2019-05-15T17:08:50.169Z,2.20
2019-05-15T17:11:20.226Z,3.93
2019-05-15T17:13:50.383Z,3.77
2019-05-15T17:16:20.620Z,2.50
2019-05-15T17:18:50.946Z,1.73
2019-05-15T17:21:21.225Z,2.30
2019-05-15T17:23:51.197Z,3.63
2019-05-15T17:26:21.405Z,2.37
2019-05-15T17:28:51.564Z,3.00
2019-05-15T17:31:21.622Z,4.10
2019-05-15T17:33:51.671Z,3.10
2019-05-15T17:36:21.766Z,1.43
2019-05-15T17:38:52.020Z,2.07
2019-05-15T17:41:22.144Z,3.27
2019-05-15T17:43:52.445Z,2.37
2019-05-15T17:46:22.692Z,5.20
2019-05-15T17:48:55.805Z,3.73
2019-05-15T17:51:24.766Z,3.40
2019-05-15T17:53:54.798Z,2.43
2019-05-15T17:56:24.830Z,2.30
2019-05-15T17:58:55.191Z,3.33
2019-05-15T18:01:28.044Z,2.20
2019-05-15T18:03:59.364Z,3.33
2019-05-15T18:06:29.234Z,2.77
2019-05-15T18:08:59.792Z,3.60
2019-05-15T18:11:30.339Z,2.00
2019-05-15T18:14:00.453Z,2.07
2019-05-15T18:16:30.549Z,2.10
2019-05-15T18:19:00.929Z,3.20
2019-05-15T18:21:31.349Z,3.43
2019-05-15T18:24:01.464Z,2.53
2019-05-15T18:26:31.719Z,3.90
2019-05-15T18:29:01.757Z,1.23
2019-05-15T18:31:32.052Z,2.37
2019-05-15T18:34:02.846Z,1.10
2019-05-15T18:36:33.155Z,2.17
2019-05-15T18:39:03.441Z,3.40
2019-05-15T18:41:33.533Z,1.93
2019-05-15T18:44:03.704Z,2.17
2019-05-15T18:46:33.751Z,3.00
2019-05-15T18:49:04.249Z,1.23
2019-05-15T18:51:34.229Z,1.97
2019-05-15T18:54:04.243Z,2.93
2019-05-15T18:56:34.417Z,2.50
2019-05-15T18:59:04.814Z,3.17
2019-05-15T19:01:34.907Z,2.43
2019-05-15T19:04:05.405Z,3.70
2019-05-15T19:06:38.215Z,3.40
2019-05-15T19:09:09.503Z,1.43
2019-05-15T19:11:39.947Z,2.17
2019-05-15T19:14:10.340Z,1.60
2019-05-15T19:16:40.516Z,3.00
2019-05-15T19:19:10.987Z,3.63
2019-05-15T19:21:41.709Z,1.83
2019-05-15T19:24:11.890Z,1.87
2019-05-15T19:26:42.386Z,1.53
2019-05-15T19:29:12.499Z,2.27
2019-05-15T19:31:43.085Z,2.27
2019-05-15T19:34:13.490Z,2.13
2019-05-15T19:36:43.685Z,2.80
2019-05-15T19:39:13.975Z,2.90
2019-05-15T19:41:44.093Z,2.13
2019-05-15T19:44:14.087Z,1.87
2019-05-15T19:46:44.291Z,3.57
2019-05-15T19:49:14.874Z,2.00
2019-05-15T19:51:45.207Z,2.03
2019-05-15T19:54:15.581Z,2.13
2019-05-15T19:56:47.825Z,1.90
2019-05-15T19:59:22.402Z,2.13
2019-05-15T20:01:49.144Z,1.63
2019-05-15T20:04:19.672Z,1.57
2019-05-15T20:06:49.667Z,1.43
2019-05-15T20:09:19.651Z,3.40
2019-05-15T20:11:49.830Z,3.00
2019-05-15T20:14:19.994Z,2.27
2019-05-15T20:16:50.293Z,2.43
2019-05-15T20:19:20.768Z,2.47
2019-05-15T20:21:50.918Z,3.17
2019-05-15T20:24:21.154Z,3.23
2019-05-15T20:26:51.362Z,4.50
2019-05-15T20:29:21.691Z,2.27
2019-05-15T20:31:51.856Z,1.23
2019-05-15T20:34:22.364Z,1.70
2019-05-15T20:36:52.493Z,1.90
2019-05-15T20:39:22.619Z,2.70
2019-05-15T20:41:52.735Z,2.83
2019-05-15T20:44:22.754Z,1.63
2019-05-15T20:46:52.827Z,2.17
2019-05-15T20:49:23.211Z,1.67
2019-05-15T20:51:53.204Z,1.77
2019-05-15T20:54:23.268Z,2.50
2019-05-15T20:56:53.260Z,2.13
2019-05-15T20:59:23.644Z,1.73
2019-05-15T21:01:53.967Z,3.10
2019-05-15T21:04:25.055Z,1.57
2019-05-15T21:06:55.579Z,1.67
2019-05-15T21:09:28.392Z,1.57
2019-05-15T21:11:58.774Z,1.27
2019-05-15T21:14:29.091Z,1.43
2019-05-15T21:16:59.464Z,2.03
2019-05-15T21:19:29.589Z,1.40
2019-05-15T21:21:59.942Z,2.20
2019-05-15T21:24:30.142Z,3.20
2019-05-15T21:27:00.281Z,3.80
2019-05-15T21:29:30.933Z,2.87
2019-05-15T21:32:01.101Z,2.13
2019-05-15T21:34:36.965Z,3.30
2019-05-15T21:37:02.824Z,4.67
2019-05-15T21:39:32.876Z,3.90
2019-05-15T21:42:03.067Z,2.30
2019-05-15T21:44:33.166Z,2.20
2019-05-15T21:47:03.225Z,2.87
2019-05-15T21:49:33.384Z,2.13
2019-05-15T21:52:03.939Z,3.47
2019-05-15T21:54:34.266Z,2.70
2019-05-15T21:57:18.688Z,1.30
2019-05-15T21:59:38.348Z,1.80
2019-05-15T22:02:08.513Z,2.27
2019-05-15T22:04:51.269Z,3.30
2019-05-15T22:07:10.814Z,2.70
2019-05-15T22:09:41.392Z,3.20
2019-05-15T22:12:11.886Z,4.30
2019-05-15T22:14:42.330Z,5.63
2019-05-15T22:17:12.886Z,1.37
2019-05-15T22:19:43.079Z,2.80
2019-05-15T22:22:13.686Z,2.73
2019-05-15T22:24:43.913Z,1.77
2019-05-15T22:27:14.234Z,2.30
2019-05-15T22:29:44.595Z,2.33
2019-05-15T22:32:14.765Z,3.03
2019-05-15T22:34:44.984Z,4.30
2019-05-15T22:37:17.890Z,2.63
2019-05-15T22:39:47.323Z,2.27
2019-05-15T22:42:18.302Z,3.43
2019-05-15T22:44:48.536Z,3.23
2019-05-15T22:47:19.977Z,2.67
2019-05-15T22:49:50.485Z,1.77
2019-05-15T22:52:21.060Z,3.97
2019-05-15T22:54:51.285Z,3.50
2019-05-15T22:57:21.437Z,3.03
2019-05-15T22:59:52.033Z,2.60
2019-05-15T23:02:22.228Z,1.77
2019-05-15T23:04:52.610Z,0.97
2019-05-15T23:07:22.701Z,1.53
2019-05-15T23:09:52.951Z,1.47
2019-05-15T23:12:23.021Z,5.60
2019-05-15T23:14:53.180Z,3.17
2019-05-15T23:17:23.294Z,2.10
2019-05-15T23:19:53.547Z,3.73
2019-05-15T23:22:23.863Z,1.83
2019-05-15T23:24:54.173Z,4.90
2019-05-15T23:27:24.587Z,2.43
2019-05-15T23:29:54.937Z,1.13
2019-05-15T23:32:25.288Z,2.10
2019-05-15T23:34:58.255Z,2.43
2019-05-15T23:37:28.135Z,1.97
2019-05-15T23:39:58.255Z,2.20
2019-05-15T23:42:29.370Z,2.97
2019-05-15T23:44:59.836Z,2.30
2019-05-15T23:47:30.174Z,3.17
2019-05-15T23:50:00.488Z,1.53
2019-05-15T23:52:30.705Z,3.47
2019-05-15T23:55:01.063Z,2.97
2019-05-15T23:57:31.777Z,4.50
